Scott, Wisconsin
Current Conditions -  °F | °C
As of 7:53 AM on Saturday 20 Dec 2014 (Local Time) from KGRB Reporting Station
Haze Haze  
Wind Chill: 22°   Ceiling: 3300
Heat Index: 22°   Visibility: 5mi
Dew Point: 20°   Wind: 0mph
Humidity: 92%   Direction: NA
Pressure: 30.27"   Gusts: NA
Location:  44.4814°N, 88.0196°W
Report Text: KGRB 201353Z 00000KT 5SM BR OVC033 M06/M07 A3027 RMK AO2 SLP262 T10561067
Loading
Personal Weather Stations






























Interactive Weather Map New forecast layout! Learn more

10-Day Weather Forecast

Advertisements
Track Severe Weather on mobile